createdAt,value
2018-11-14T00:01:41.497Z,5.90
2018-11-14T00:04:09.925Z,6.23
2018-11-14T00:06:38.309Z,6.40
2018-11-14T00:09:09.178Z,6.30
2018-11-14T00:11:37.601Z,7.27
2018-11-14T00:14:06.401Z,6.57
2018-11-14T00:16:34.986Z,6.97
2018-11-14T00:19:03.397Z,7.63
2018-11-14T00:21:31.772Z,7.70
2018-11-14T00:24:00.173Z,7.27
2018-11-14T00:26:28.845Z,6.93
2018-11-14T00:28:57.489Z,7.43
2018-11-14T00:31:25.694Z,7.03
2018-11-14T00:33:54.069Z,6.43
2018-11-14T00:36:22.665Z,6.47
2018-11-14T00:38:51.082Z,6.77
2018-11-14T00:41:19.473Z,7.67
2018-11-14T00:43:47.886Z,7.23
2018-11-14T00:46:16.279Z,7.43
2018-11-14T00:48:44.669Z,7.80
2018-11-14T00:51:13.069Z,8.87
2018-11-14T00:53:41.575Z,8.10
2018-11-14T00:56:09.944Z,7.20
2018-11-14T00:58:38.372Z,8.23
2018-11-14T01:01:06.755Z,7.40
2018-11-14T01:03:35.166Z,7.27
2018-11-14T01:06:03.573Z,6.77
2018-11-14T01:08:31.955Z,7.03
2018-11-14T01:11:00.313Z,7.33
2018-11-14T01:13:28.717Z,6.97
2018-11-14T01:15:57.088Z,6.50
2018-11-14T01:18:25.481Z,6.60
2018-11-14T01:20:53.844Z,6.53
2018-11-14T01:23:22.246Z,6.30
2018-11-14T01:25:50.641Z,6.17
2018-11-14T01:28:19.009Z,7.10
2018-11-14T01:30:47.375Z,7.80
2018-11-14T01:33:15.771Z,6.23
2018-11-14T01:35:44.152Z,6.10
2018-11-14T01:38:12.537Z,5.77
2018-11-14T01:40:41.381Z,6.33
2018-11-14T01:43:09.801Z,6.77
2018-11-14T01:45:38.212Z,7.13
2018-11-14T01:48:06.587Z,6.50
2018-11-14T01:50:34.973Z,7.03
2018-11-14T01:53:03.362Z,7.43
2018-11-14T01:55:31.798Z,7.43
2018-11-14T01:58:00.309Z,6.87
2018-11-14T02:00:28.691Z,6.77
2018-11-14T02:02:57.055Z,6.13
2018-11-14T02:05:25.500Z,5.87
2018-11-14T02:07:53.857Z,6.47
2018-11-14T02:10:22.255Z,7.17
2018-11-14T02:12:50.882Z,6.97
2018-11-14T02:15:21.525Z,6.43
2018-11-14T02:17:49.954Z,7.13
2018-11-14T02:20:18.389Z,6.23
2018-11-14T02:22:47.108Z,6.57
2018-11-14T02:25:16.024Z,6.83
2018-11-14T02:27:44.422Z,6.83
2018-11-14T02:30:14.977Z,7.90
2018-11-14T02:32:43.355Z,7.27
2018-11-14T02:35:11.831Z,7.40
2018-11-14T02:37:41.261Z,7.03
2018-11-14T02:40:11.985Z,7.60
2018-11-14T02:42:40.532Z,6.67
2018-11-14T02:45:09.281Z,6.73
2018-11-14T02:47:37.720Z,7.07
2018-11-14T02:50:06.977Z,7.93
2018-11-14T02:52:35.461Z,8.10
2018-11-14T02:55:03.894Z,7.63
2018-11-14T02:57:32.312Z,7.70
2018-11-14T03:00:00.701Z,8.70
2018-11-14T03:02:29.075Z,6.90
2018-11-14T03:04:57.479Z,8.07
2018-11-14T03:07:25.938Z,7.60
2018-11-14T03:09:54.376Z,7.87
2018-11-14T03:12:22.779Z,6.90
2018-11-14T03:14:51.142Z,7.27
2018-11-14T03:17:19.540Z,6.80
2018-11-14T03:19:48.217Z,7.40
2018-11-14T03:22:16.654Z,7.70
2018-11-14T03:24:45.098Z,7.20
2018-11-14T03:27:13.506Z,6.73
2018-11-14T03:29:41.929Z,7.73
2018-11-14T03:32:10.366Z,6.83
2018-11-14T03:34:38.833Z,7.20
2018-11-14T03:37:07.255Z,7.80
2018-11-14T03:39:35.700Z,7.50
2018-11-14T03:42:04.149Z,7.60
2018-11-14T03:44:32.569Z,7.53
2018-11-14T03:47:00.985Z,8.17
2018-11-14T03:49:29.413Z,8.43
2018-11-14T03:51:57.818Z,8.40
2018-11-14T03:54:26.260Z,7.47
2018-11-14T03:56:54.664Z,7.03
2018-11-14T03:59:23.249Z,7.40
2018-11-14T04:01:51.672Z,7.07
2018-11-14T04:04:20.081Z,7.33
2018-11-14T04:06:48.559Z,6.97
2018-11-14T04:09:17.158Z,7.47
2018-11-14T04:11:45.446Z,7.90
2018-11-14T04:14:13.849Z,7.40
2018-11-14T04:16:42.300Z,7.90
2018-11-14T04:19:10.714Z,9.00
2018-11-14T04:21:39.137Z,9.47
2018-11-14T04:24:07.539Z,8.87
2018-11-14T04:26:35.925Z,9.43
2018-11-14T04:29:04.349Z,9.37
2018-11-14T04:31:32.749Z,8.57
2018-11-14T04:34:01.201Z,8.73
2018-11-14T04:36:29.635Z,8.90
2018-11-14T04:38:58.010Z,8.73
2018-11-14T04:41:26.409Z,8.37
2018-11-14T04:43:54.775Z,8.70
2018-11-14T04:46:23.202Z,8.37
2018-11-14T04:48:51.577Z,8.17
2018-11-14T04:51:19.994Z,8.50
2018-11-14T04:53:48.382Z,8.03
2018-11-14T04:56:16.818Z,7.63
2018-11-14T04:58:45.193Z,8.60
2018-11-14T05:01:13.582Z,8.20
2018-11-14T05:03:41.957Z,7.97
2018-11-14T05:06:10.353Z,7.97
2018-11-14T05:08:38.730Z,7.73
2018-11-14T05:11:07.125Z,8.40
2018-11-14T05:13:35.493Z,7.77
2018-11-14T05:16:03.946Z,7.80
2018-11-14T05:18:32.317Z,7.70
2018-11-14T05:21:00.694Z,7.80
2018-11-14T05:23:29.098Z,8.17
2018-11-14T05:25:57.473Z,8.03
2018-11-14T05:28:25.845Z,8.57
2018-11-14T05:30:54.242Z,7.40
2018-11-14T05:33:22.639Z,7.90
2018-11-14T05:35:51.034Z,7.83
2018-11-14T05:38:19.417Z,8.23
2018-11-14T05:40:47.826Z,8.00
2018-11-14T05:43:16.206Z,8.57
2018-11-14T05:45:44.617Z,7.93
2018-11-14T05:48:13.530Z,8.63
2018-11-14T05:50:41.906Z,8.53
2018-11-14T05:53:10.289Z,8.37
2018-11-14T05:55:38.973Z,8.53
2018-11-14T05:58:07.329Z,7.93
2018-11-14T06:00:35.789Z,8.10
2018-11-14T06:03:04.876Z,9.03
2018-11-14T06:05:33.346Z,8.57
2018-11-14T06:08:01.721Z,7.70
2018-11-14T06:10:30.113Z,7.40
2018-11-14T06:12:58.511Z,7.10
2018-11-14T06:15:26.985Z,7.53
2018-11-14T06:17:56.493Z,8.03
2018-11-14T06:20:24.868Z,8.10
2018-11-14T06:22:53.610Z,8.77
2018-11-14T06:25:26.802Z,8.23
2018-11-14T06:27:56.105Z,8.23
2018-11-14T06:30:24.818Z,8.87
2018-11-14T06:32:53.833Z,7.23
2018-11-14T06:35:22.450Z,8.33
2018-11-14T06:37:51.605Z,8.73
2018-11-14T06:40:20.196Z,9.17
2018-11-14T06:42:48.640Z,7.50
2018-11-14T06:45:21.125Z,7.53
2018-11-14T06:47:50.757Z,7.47
2018-11-14T06:50:19.133Z,8.80
2018-11-14T06:52:48.589Z,7.53
2018-11-14T06:55:17.893Z,8.13
2018-11-14T06:57:46.294Z,7.87
2018-11-14T07:00:23.289Z,7.43
2018-11-14T07:02:52.157Z,8.47
2018-11-14T07:05:24.676Z,8.53
2018-11-14T07:07:53.157Z,8.47
2018-11-14T07:10:24.946Z,8.03
2018-11-14T07:12:53.374Z,8.20
2018-11-14T07:15:23.062Z,7.80
2018-11-14T07:17:52.579Z,8.00
2018-11-14T07:20:27.346Z,7.53
2018-11-14T07:22:55.741Z,7.80
2018-11-14T07:25:24.161Z,7.37
2018-11-14T07:27:52.558Z,7.10
2018-11-14T07:30:22.541Z,8.03
2018-11-14T07:32:54.268Z,7.13
2018-11-14T07:35:22.726Z,7.13
2018-11-14T07:38:07.825Z,7.40
2018-11-14T07:40:36.232Z,6.47
2018-11-14T07:43:04.674Z,6.43
2018-11-14T07:45:33.087Z,6.33
2018-11-14T07:48:01.490Z,6.63
2018-11-14T07:50:31.046Z,6.50
2018-11-14T07:52:59.569Z,5.90
2018-11-14T07:55:27.942Z,6.10
2018-11-14T07:57:56.377Z,5.87
2018-11-14T08:00:24.773Z,6.43
2018-11-14T08:02:53.169Z,6.37
2018-11-14T08:05:21.590Z,5.77
2018-11-14T08:07:50.071Z,5.53
2018-11-14T08:10:18.606Z,5.70
2018-11-14T08:12:46.981Z,5.30
2018-11-14T08:15:15.367Z,4.77
2018-11-14T08:17:43.760Z,4.80
2018-11-14T08:20:13.085Z,4.40
2018-11-14T08:22:42.100Z,4.97
2018-11-14T08:25:10.577Z,4.77
2018-11-14T08:27:40.538Z,4.33
2018-11-14T08:30:13.052Z,4.50
2018-11-14T08:32:44.318Z,4.70
2018-11-14T08:35:15.693Z,5.43
2018-11-14T08:37:46.412Z,4.83
2018-11-14T08:40:18.263Z,4.53
2018-11-14T08:42:46.805Z,5.10
2018-11-14T08:45:15.177Z,4.83
2018-11-14T08:47:43.662Z,5.10
2018-11-14T08:50:15.304Z,5.67
2018-11-14T08:52:44.038Z,5.07
2018-11-14T08:55:13.184Z,5.20
2018-11-14T08:57:42.573Z,5.33
2018-11-14T09:00:14.317Z,5.13
2018-11-14T09:02:43.149Z,4.93
2018-11-14T09:05:11.649Z,5.60
2018-11-14T09:07:40.084Z,5.43
2018-11-14T09:10:11.408Z,4.80
2018-11-14T09:12:40.306Z,5.33
2018-11-14T09:15:10.466Z,4.87
2018-11-14T09:17:38.963Z,5.50
2018-11-14T09:20:08.702Z,5.20
2018-11-14T09:22:37.378Z,6.07
2018-11-14T09:25:07.718Z,5.87
2018-11-14T09:27:36.113Z,5.37
2018-11-14T09:30:05.794Z,4.87
2018-11-14T09:32:34.202Z,4.93
2018-11-14T09:35:02.586Z,4.50
2018-11-14T09:37:30.981Z,5.20
2018-11-14T09:39:59.405Z,4.37
2018-11-14T09:42:27.822Z,4.53
2018-11-14T09:44:57.697Z,4.60
2018-11-14T09:47:28.063Z,4.97
2018-11-14T09:49:58.046Z,4.90
2018-11-14T09:52:28.258Z,5.20
2018-11-14T09:54:59.227Z,5.60
2018-11-14T09:57:29.544Z,5.80
2018-11-14T10:00:00.839Z,6.40
2018-11-14T10:02:31.126Z,6.10
2018-11-14T10:05:00.983Z,6.40
2018-11-14T10:07:32.421Z,6.27
2018-11-14T10:10:03.893Z,6.37
2018-11-14T10:12:34.075Z,5.83
2018-11-14T10:15:03.663Z,5.20
2018-11-14T10:17:34.264Z,5.20
2018-11-14T10:20:03.050Z,5.17
2018-11-14T10:22:33.641Z,5.07
2018-11-14T10:25:02.967Z,4.80
2018-11-14T10:27:32.999Z,4.60
2018-11-14T10:30:12.562Z,4.70
2018-11-14T10:32:41.846Z,4.70
2018-11-14T10:35:11.132Z,4.53
2018-11-14T10:37:40.324Z,4.50
2018-11-14T10:40:11.594Z,4.50
2018-11-14T10:42:42.088Z,4.00
2018-11-14T10:45:14.417Z,3.80
2018-11-14T10:47:45.875Z,3.90
2018-11-14T10:50:17.218Z,3.60
2018-11-14T10:52:46.377Z,3.50
2018-11-14T10:55:17.918Z,3.50
2018-11-14T10:57:46.820Z,3.93
2018-11-14T11:00:23.370Z,3.27
2018-11-14T11:02:57.665Z,3.77
2018-11-14T11:06:30.016Z,3.83
2018-11-14T11:09:03.817Z,3.70
2018-11-14T11:11:36.720Z,3.37
2018-11-14T11:14:10.570Z,3.50
2018-11-14T11:16:44.474Z,3.80
2018-11-14T11:19:26.189Z,3.30
2018-11-14T11:21:55.034Z,3.57
2018-11-14T11:24:24.078Z,3.50
2018-11-14T11:26:52.785Z,3.30
2018-11-14T11:29:21.549Z,3.67
2018-11-14T11:31:50.621Z,3.10
2018-11-14T11:34:19.400Z,3.20
2018-11-14T11:36:48.237Z,3.60
2018-11-14T11:39:18.310Z,3.37
2018-11-14T11:41:47.430Z,3.50
2018-11-14T11:44:16.331Z,3.80
2018-11-14T11:46:46.993Z,3.23
2018-11-14T11:49:15.810Z,3.97
2018-11-14T11:51:44.766Z,4.10
2018-11-14T11:54:13.532Z,4.20
2018-11-14T11:56:42.230Z,4.10
2018-11-14T11:59:11.268Z,3.83
2018-11-14T12:01:39.920Z,3.60
2018-11-14T12:04:10.858Z,3.67
2018-11-14T12:06:41.074Z,4.20
2018-11-14T12:09:12.864Z,3.53
2018-11-14T12:11:41.330Z,4.00
2018-11-14T12:14:09.809Z,3.93
2018-11-14T12:16:38.295Z,3.83
2018-11-14T12:19:06.797Z,3.70
2018-11-14T12:21:35.170Z,4.13
2018-11-14T12:24:03.604Z,4.23
2018-11-14T12:26:32.057Z,4.10
2018-11-14T12:29:00.542Z,3.90
2018-11-14T12:31:29.021Z,4.30
2018-11-14T12:33:57.433Z,3.97
2018-11-14T12:36:25.857Z,4.17
2018-11-14T12:38:54.324Z,4.37
2018-11-14T12:41:22.678Z,4.23
2018-11-14T12:43:51.053Z,3.80
2018-11-14T12:46:19.515Z,3.90
2018-11-14T12:48:47.904Z,4.10
2018-11-14T12:51:16.342Z,3.80
2018-11-14T12:53:44.738Z,3.47
2018-11-14T12:56:13.146Z,4.00
2018-11-14T12:58:41.521Z,3.57
2018-11-14T13:01:09.977Z,3.60
2018-11-14T13:03:38.354Z,4.17
2018-11-14T13:06:06.805Z,4.00
2018-11-14T13:08:35.222Z,3.53
2018-11-14T13:11:03.633Z,3.93
2018-11-14T13:13:37.201Z,3.80
2018-11-14T13:16:06.109Z,3.80
2018-11-14T13:18:34.460Z,3.60
2018-11-14T13:21:02.857Z,3.70
2018-11-14T13:23:31.273Z,3.60
2018-11-14T13:25:59.781Z,3.13
2018-11-14T13:28:28.185Z,3.50
2018-11-14T13:30:56.622Z,3.37
2018-11-14T13:33:24.981Z,3.20
2018-11-14T13:35:53.380Z,3.50
2018-11-14T13:38:21.753Z,3.40
2018-11-14T13:40:50.185Z,2.77
2018-11-14T13:43:18.670Z,3.17
2018-11-14T13:45:47.065Z,3.03
2018-11-14T13:48:15.448Z,3.30
2018-11-14T13:50:44.174Z,3.07
2018-11-14T13:53:12.325Z,2.93
2018-11-14T13:55:40.733Z,2.93
2018-11-14T13:58:09.118Z,2.73
2018-11-14T14:00:37.522Z,2.97
2018-11-14T14:03:06.114Z,3.13
2018-11-14T14:05:34.533Z,3.50
2018-11-14T14:08:02.947Z,3.13
2018-11-14T14:10:31.362Z,2.97
2018-11-14T14:12:59.777Z,3.00
2018-11-14T14:15:28.596Z,2.80
2018-11-14T14:17:57.001Z,2.70
2018-11-14T14:20:25.637Z,2.83
2018-11-14T14:22:54.037Z,3.03
2018-11-14T14:25:23.200Z,3.10
2018-11-14T14:27:51.617Z,2.90
2018-11-14T14:30:22.189Z,2.90
2018-11-14T14:32:50.636Z,2.80
2018-11-14T14:35:20.173Z,3.03
2018-11-14T14:37:48.574Z,3.10
2018-11-14T14:40:20.049Z,3.10
2018-11-14T14:42:48.551Z,3.30
2018-11-14T14:45:18.785Z,3.30
2018-11-14T14:47:47.190Z,3.20
2018-11-14T14:50:16.805Z,3.33
2018-11-14T14:52:47.769Z,3.53
2018-11-14T14:55:19.895Z,3.20
2018-11-14T14:57:48.915Z,3.20
2018-11-14T15:00:20.906Z,2.97
2018-11-14T15:02:49.690Z,3.20
2018-11-14T15:05:22.116Z,3.10
2018-11-14T15:07:50.727Z,3.30
2018-11-14T15:10:20.955Z,3.50
2018-11-14T15:12:49.652Z,3.07
2018-11-14T15:15:18.388Z,3.57
2018-11-14T15:17:47.145Z,3.13
2018-11-14T15:20:18.747Z,3.63
2018-11-14T15:22:48.045Z,3.43
2018-11-14T15:25:18.889Z,3.80
2018-11-14T15:27:48.041Z,3.87
2018-11-14T15:30:19.614Z,3.70
2018-11-14T15:32:48.630Z,3.80
2018-11-14T15:35:17.305Z,4.43
2018-11-14T15:37:46.049Z,3.87
2018-11-14T15:40:16.162Z,4.70
2018-11-14T15:43:03.214Z,3.97
2018-11-14T15:45:32.161Z,4.47
2018-11-14T15:48:01.217Z,4.40
2018-11-14T15:50:30.699Z,4.60
2018-11-14T15:53:04.451Z,4.60
2018-11-14T15:55:33.151Z,4.53
2018-11-14T15:58:06.295Z,5.10
2018-11-14T16:00:34.922Z,5.30
2018-11-14T16:03:06.073Z,5.90
2018-11-14T16:05:37.708Z,6.53
2018-11-14T16:08:06.450Z,8.00
2018-11-14T16:10:35.179Z,6.73
2018-11-14T16:13:09.693Z,6.47
2018-11-14T16:15:38.486Z,6.57
2018-11-14T16:18:07.201Z,6.57
2018-11-14T16:20:35.778Z,6.97
2018-11-14T16:23:05.430Z,6.90
2018-11-14T16:31:20.321Z,7.43
2018-11-14T16:33:48.761Z,7.57
2018-11-14T16:36:17.132Z,7.53
2018-11-14T16:38:45.489Z,7.63
2018-11-14T16:41:14.034Z,7.80
2018-11-14T16:43:42.447Z,7.97
2018-11-14T16:46:11.094Z,7.70
2018-11-14T16:48:39.518Z,7.80
2018-11-14T16:51:07.899Z,7.90
2018-11-14T16:53:36.285Z,8.97
2018-11-14T16:56:04.802Z,9.23
2018-11-14T16:58:33.205Z,10.13
2018-11-14T17:01:01.615Z,10.33
2018-11-14T17:03:30.007Z,9.50
2018-11-14T17:05:58.521Z,9.30
2018-11-14T17:08:26.917Z,8.97
2018-11-14T17:10:55.298Z,8.57
2018-11-14T17:13:23.691Z,7.90
2018-11-14T17:15:52.113Z,8.00
2018-11-14T17:18:20.625Z,7.67
2018-11-14T17:20:49.005Z,7.57
2018-11-14T17:23:18.033Z,7.77
2018-11-14T17:25:46.725Z,8.67
2018-11-14T17:28:15.521Z,9.00
2018-11-14T17:30:44.345Z,9.17
2018-11-14T17:33:13.030Z,8.63
2018-11-14T17:35:42.159Z,8.80
2018-11-14T17:38:12.584Z,9.87
2018-11-14T17:40:43.074Z,9.10
2018-11-14T17:43:11.833Z,9.73
2018-11-14T17:45:40.808Z,9.60
2018-11-14T17:48:09.547Z,9.90
2018-11-14T17:50:38.221Z,9.47
2018-11-14T17:53:10.566Z,10.37
2018-11-14T17:55:39.974Z,10.67
2018-11-14T17:58:10.666Z,8.60
2018-11-14T18:00:39.351Z,8.87
2018-11-14T18:03:08.130Z,8.60
2018-11-14T18:05:36.711Z,8.40
2018-11-14T18:08:05.442Z,9.27
2018-11-14T18:10:38.387Z,8.57
2018-11-14T18:13:07.041Z,9.37
2018-11-14T18:15:35.742Z,10.03
2018-11-14T18:18:04.563Z,10.80
2018-11-14T18:20:36.135Z,9.97
2018-11-14T18:23:04.573Z,10.27
2018-11-14T18:25:32.965Z,9.87
2018-11-14T18:28:01.378Z,9.27
2018-11-14T18:30:30.860Z,9.57
2018-11-14T18:33:00.209Z,9.40
2018-11-14T18:35:28.860Z,9.93
2018-11-14T18:37:58.228Z,9.93
2018-11-14T18:40:29.099Z,10.60
2018-11-14T18:42:57.567Z,8.80
2018-11-14T18:45:30.859Z,9.77
2018-11-14T18:48:00.201Z,9.97
2018-11-14T18:50:28.791Z,10.20
2018-11-14T18:52:57.222Z,9.63
2018-11-14T18:55:27.058Z,9.60
2018-11-14T18:57:55.820Z,9.37
2018-11-14T19:00:26.573Z,10.30
2018-11-14T19:02:54.990Z,10.63
2018-11-14T19:05:23.417Z,10.73
2018-11-14T19:10:50.642Z,11.27
2018-11-14T19:13:19.094Z,11.93
2018-11-14T19:15:47.500Z,12.10
2018-11-14T19:18:15.910Z,12.43
2018-11-14T19:20:44.297Z,12.83
2018-11-14T19:23:12.782Z,12.17
2018-11-14T19:25:41.178Z,11.40
2018-11-14T19:28:09.592Z,12.17
2018-11-14T19:30:38.719Z,11.50
2018-11-14T19:33:07.170Z,11.60
2018-11-14T19:35:35.601Z,11.27
2018-11-14T19:38:04.121Z,11.07
2018-11-14T19:40:33.761Z,12.17
2018-11-14T19:43:03.320Z,12.73
2018-11-14T19:45:33.862Z,11.73
2018-11-14T19:48:02.318Z,11.77
2018-11-14T19:50:30.739Z,11.60
2018-11-14T19:52:59.212Z,11.30
2018-11-14T19:55:28.315Z,11.13
2018-11-14T19:57:57.765Z,11.30
2018-11-14T20:00:27.491Z,11.60
2018-11-14T20:02:55.942Z,12.80
2018-11-14T20:05:24.470Z,12.37
2018-11-14T20:07:52.993Z,12.53
2018-11-14T20:10:25.856Z,13.00
2018-11-14T20:12:54.564Z,13.07
2018-11-14T20:15:24.333Z,12.80
2018-11-14T20:17:52.853Z,13.20
2018-11-14T20:20:23.545Z,12.90
2018-11-14T20:22:51.962Z,12.70
2018-11-14T20:25:20.502Z,12.30
2018-11-14T20:27:49.044Z,11.97
2018-11-14T20:30:20.269Z,13.27
2018-11-14T20:32:49.303Z,13.57
2018-11-14T20:35:18.947Z,13.97
2018-11-14T20:37:47.332Z,12.97
2018-11-14T20:40:17.013Z,15.77
2018-11-14T20:42:45.971Z,15.00
2018-11-14T20:45:16.821Z,15.70
2018-11-14T20:47:45.382Z,16.73
2018-11-14T20:50:16.081Z,15.73
2018-11-14T20:52:45.141Z,18.17
2018-11-14T20:55:13.800Z,19.27
2018-11-14T20:57:43.469Z,19.33
2018-11-14T21:00:15.243Z,20.10
2018-11-14T21:02:43.765Z,18.47
2018-11-14T21:05:13.054Z,19.00
2018-11-14T21:07:42.528Z,20.00
2018-11-14T21:10:12.864Z,18.57
2018-11-14T21:12:41.364Z,18.67
2018-11-14T21:15:11.658Z,18.43
2018-11-14T21:17:40.180Z,17.80
2018-11-14T21:20:09.109Z,16.30
2018-11-14T21:22:38.369Z,15.67
2018-11-14T21:25:08.209Z,18.10
2018-11-14T21:27:36.602Z,16.90
2018-11-14T21:30:07.102Z,17.63
2018-11-14T21:32:35.473Z,18.17
2018-11-14T21:35:03.902Z,17.50
2018-11-14T21:37:32.253Z,18.13
2018-11-14T21:40:00.659Z,18.17
2018-11-14T21:42:29.070Z,18.07
2018-11-14T21:47:27.470Z,20.30
2018-11-14T21:49:55.866Z,18.80
2018-11-14T21:52:24.245Z,20.20
2018-11-14T21:54:52.633Z,21.17
2018-11-14T21:57:21.038Z,21.33
2018-11-14T21:59:49.490Z,20.37
2018-11-14T22:02:17.841Z,21.10
2018-11-14T22:04:46.233Z,21.47
2018-11-14T22:07:14.641Z,23.07
2018-11-14T22:09:43.114Z,21.47
2018-11-14T22:12:11.569Z,20.93
2018-11-14T22:14:40.020Z,21.73
2018-11-14T22:17:08.395Z,22.97
2018-11-14T22:19:36.839Z,21.10
2018-11-14T22:22:05.583Z,22.50
2018-11-14T22:24:33.983Z,23.20
2018-11-14T22:27:02.368Z,22.57
2018-11-14T22:29:30.790Z,23.03
2018-11-14T22:31:59.162Z,21.70
2018-11-14T22:34:27.592Z,22.20
2018-11-14T22:36:55.957Z,22.70
2018-11-14T22:39:24.368Z,22.07
2018-11-14T22:41:52.808Z,22.50
2018-11-14T22:44:21.186Z,21.00
2018-11-14T22:46:49.604Z,20.80
2018-11-14T22:49:17.994Z,21.93
2018-11-14T22:51:46.374Z,21.43
2018-11-14T22:54:14.742Z,21.77
2018-11-14T22:56:43.165Z,22.00
2018-11-14T22:59:11.562Z,20.80
2018-11-14T23:01:40.015Z,20.30
2018-11-14T23:04:08.412Z,20.73
2018-11-14T23:06:36.834Z,20.47
2018-11-14T23:09:08.458Z,20.93
2018-11-14T23:11:36.873Z,21.07
2018-11-14T23:14:05.743Z,20.70
2018-11-14T23:16:34.215Z,21.57
2018-11-14T23:19:02.660Z,21.43
2018-11-14T23:21:31.193Z,22.27
2018-11-14T23:23:59.960Z,21.83
2018-11-14T23:26:28.521Z,21.57
2018-11-14T23:28:56.938Z,22.07
2018-11-14T23:31:25.363Z,21.33
2018-11-14T23:33:53.816Z,20.13
2018-11-14T23:36:22.261Z,20.57
2018-11-14T23:38:50.641Z,20.47
2018-11-14T23:41:19.034Z,21.77
2018-11-14T23:43:47.441Z,22.73
2018-11-14T23:46:15.846Z,22.50
2018-11-14T23:48:44.310Z,22.47
2018-11-14T23:51:12.707Z,21.93
2018-11-14T23:53:41.089Z,21.60
2018-11-14T23:56:09.515Z,21.87
2018-11-14T23:58:37.903Z,20.93
